Time;durP1;ratioP1;P1;durP2;ratioP2;P2;SDS_P1;SDS_P2;PMS_P1;PMS_P2;Temp;Humidity;BMP_temperature;BMP_pressure;BME280_temperature;BME280_humidity;BME280_pressure;Samples;Min_cycle;Max_cycle;Signal;HPM_P1;HPM_P2
2022/07/12 00:00:54;;;;;;;2.20;1.90;;;;;;;13.12;100.00;100055.69;4976358;28;20034;-86
2022/07/12 00:03:19;;;;;;;2.00;1.80;;;;;;;13.11;100.00;100048.78;4976332;28;20073;-87
2022/07/12 00:05:44;;;;;;;2.30;2.08;;;;;;;13.14;100.00;100056.47;4975955;28;20026;-86
2022/07/12 00:08:10;;;;;;;3.40;1.95;;;;;;;13.13;100.00;100052.16;4975982;28;20474;-86
2022/07/12 00:10:35;;;;;;;1.83;1.70;;;;;;;13.12;100.00;100052.25;4975709;28;20047;-87
2022/07/12 00:13:02;;;;;;;1.75;1.65;;;;;;;13.10;100.00;100052.31;4994091;28;20132;-87
2022/07/12 00:15:27;;;;;;;2.25;1.90;;;;;;;13.10;100.00;100054.06;4991894;28;20097;-87
2022/07/12 00:17:52;;;;;;;3.38;2.40;;;;;;;13.10;100.00;100054.91;4976140;28;20429;-87
2022/07/12 00:20:18;;;;;;;2.25;1.50;;;;;;;13.12;100.00;100052.25;4992175;28;20034;-87
2022/07/12 00:22:43;;;;;;;2.45;1.77;;;;;;;13.13;100.00;100065.22;4975999;28;20125;-88
2022/07/12 00:25:09;;;;;;;3.83;2.00;;;;;;;12.95;100.00;100024.34;4975900;28;20496;-88
2022/07/12 00:27:34;;;;;;;4.53;1.88;;;;;;;13.08;100.00;100053.31;4991764;28;20026;-87
2022/07/12 00:30:00;;;;;;;1.88;1.67;;;;;;;13.13;100.00;100054.78;4993261;28;20462;-87
2022/07/12 00:32:25;;;;;;;2.22;1.83;;;;;;;13.09;100.00;100057.63;4975700;28;20022;-86
2022/07/12 00:34:50;;;;;;;2.97;1.70;;;;;;;13.10;100.00;100054.06;5008430;28;20118;-88
2022/07/12 00:37:16;;;;;;;3.15;2.20;;;;;;;13.08;100.00;100062.00;4975738;28;20474;-87
2022/07/12 00:39:41;;;;;;;2.80;1.75;;;;;;;13.04;100.00;100054.41;4975777;28;20548;-87
2022/07/12 00:42:07;;;;;;;1.70;1.60;;;;;;;13.05;100.00;100053.47;4975510;28;20030;-87
2022/07/12 00:44:33;;;;;;;2.72;1.90;;;;;;;13.07;100.00;100062.94;4975587;28;20037;-87
2022/07/12 00:46:59;;;;;;;2.28;1.90;;;;;;;13.06;100.00;100063.00;4975638;28;20451;-88
2022/07/12 00:49:25;;;;;;;2.95;1.77;;;;;;;13.06;100.00;100065.63;4970605;28;20038;-87
2022/07/12 00:51:50;;;;;;;2.00;1.70;;;;;;;12.98;100.00;100045.09;4971037;28;20039;-87
2022/07/12 00:54:16;;;;;;;2.72;1.67;;;;;;;13.06;100.00;100074.34;4970874;28;20117;-87
2022/07/12 00:56:43;;;;;;;3.65;1.60;;;;;;;13.05;100.00;100062.16;4970694;28;20045;-87
2022/07/12 00:59:08;;;;;;;4.95;1.88;;;;;;;13.00;100.00;100066.78;4987162;28;20094;-88
2022/07/12 01:01:34;;;;;;;3.58;1.98;;;;;;;13.05;100.00;100074.38;4954617;28;20039;-88
2022/07/12 01:04:01;;;;;;;2.05;1.70;;;;;;;12.98;100.00;100076.47;4986692;28;20127;-88
2022/07/12 01:06:26;;;;;;;2.92;1.73;;;;;;;13.05;100.00;100080.47;4970759;28;20031;-87
2022/07/12 01:08:52;;;;;;;2.33;1.92;;;;;;;13.01;100.00;100078.91;4987064;28;20046;-88
2022/07/12 01:11:18;;;;;;;1.92;1.70;;;;;;;13.04;100.00;100084.00;4987106;28;20023;-88
2022/07/12 01:13:44;;;;;;;2.17;1.75;;;;;;;12.88;100.00;100063.00;4970632;28;20049;-88
2022/07/12 01:16:12;;;;;;;2.05;1.70;;;;;;;12.90;100.00;100060.31;4970621;28;20047;-88
2022/07/12 01:18:39;;;;;;;1.60;1.40;;;;;;;12.98;100.00;100079.09;4970534;28;20502;-87
2022/07/12 01:21:07;;;;;;;6.43;2.15;;;;;;;12.97;100.00;100082.59;4970612;28;20059;-87
2022/07/12 01:23:34;;;;;;;1.70;1.60;;;;;;;12.94;100.00;100082.78;4986531;28;20034;-87
2022/07/12 01:26:00;;;;;;;2.45;1.63;;;;;;;12.92;100.00;100082.84;4986742;28;20585;-87
2022/07/12 01:28:25;;;;;;;2.80;1.80;;;;;;;12.91;100.00;100082.94;4986758;28;20027;-87
2022/07/12 01:30:51;;;;;;;1.75;1.60;;;;;;;12.89;100.00;100077.78;4989606;28;20076;-86
2022/07/12 01:33:16;;;;;;;2.08;1.80;;;;;;;12.81;100.00;100066.84;4975296;28;20389;-87
2022/07/12 01:35:43;;;;;;;2.33;2.08;;;;;;;12.86;100.00;100071.84;4992222;28;20023;-87
2022/07/12 01:38:08;;;;;;;2.45;1.80;;;;;;;12.79;100.00;100062.63;4974882;28;20038;-86
2022/07/12 01:40:35;;;;;;;3.00;1.85;;;;;;;12.81;100.00;100068.59;4974793;28;20038;-88
2022/07/12 01:43:01;;;;;;;1.85;1.65;;;;;;;12.74;100.00;100063.69;5007561;28;20537;-86
2022/07/12 01:45:27;;;;;;;2.20;2.00;;;;;;;12.76;100.00;100067.97;4991284;28;20030;-86
2022/07/12 01:47:53;;;;;;;4.53;1.70;;;;;;;12.69;100.00;100064.84;4974963;28;20490;-86
2022/07/12 01:50:18;;;;;;;2.15;1.77;;;;;;;12.60;100.00;100055.69;4991060;28;20113;-87
2022/07/12 01:52:44;;;;;;;2.22;1.90;;;;;;;12.64;100.00;100058.97;4974570;28;20540;-86
2022/07/12 01:55:11;;;;;;;2.35;1.80;;;;;;;12.62;100.00;100072.13;4974912;28;20030;-87
2022/07/12 01:57:38;;;;;;;1.90;1.80;;;;;;;12.41;100.00;100044.41;4990819;28;20029;-87
2022/07/12 02:00:05;;;;;;;2.28;1.70;;;;;;;12.62;100.00;100089.56;4991041;28;20038;-87
2022/07/12 02:02:31;;;;;;;3.50;2.05;;;;;;;12.53;100.00;100085.63;4969976;28;20086;-87
2022/07/12 02:04:59;;;;;;;2.22;1.92;;;;;;;12.48;100.00;100075.41;4970214;28;20045;-88
2022/07/12 02:07:25;;;;;;;2.63;1.70;;;;;;;12.47;100.00;100085.91;4970189;28;20516;-87
2022/07/12 02:09:51;;;;;;;3.40;1.80;;;;;;;12.35;100.00;100076.06;4970093;28;20023;-87
2022/07/12 02:12:16;;;;;;;2.38;1.98;;;;;;;12.28;100.00;100067.66;4970156;28;20039;-87
2022/07/12 02:14:42;;;;;;;2.80;1.90;;;;;;;12.29;100.00;100076.34;4970282;28;20426;-86
2022/07/12 02:17:07;;;;;;;2.92;1.73;;;;;;;12.26;100.00;100084.31;4973813;28;20164;-86
2022/07/12 02:19:32;;;;;;;2.38;1.80;;;;;;;12.20;100.00;100082.84;4973536;28;20034;-87
2022/07/12 02:21:57;;;;;;;3.08;2.05;;;;;;;12.17;100.00;100089.03;4973823;28;20068;-87
2022/07/12 02:24:23;;;;;;;1.80;1.67;;;;;;;12.09;100.00;100085.94;4973598;28;20525;-89
2022/07/12 02:26:48;;;;;;;1.98;1.77;;;;;;;12.07;100.00;100084.31;4973271;28;20030;-88
2022/07/12 02:29:14;;;;;;;2.53;2.03;;;;;;;12.02;100.00;100089.75;4973443;28;20093;-89
2022/07/12 02:31:39;;;;;;;3.05;2.10;;;;;;;11.97;100.00;100084.75;4973208;28;20035;-89
2022/07/12 02:34:05;;;;;;;2.55;1.90;;;;;;;11.87;100.00;100086.06;4989560;28;20092;-89
2022/07/12 02:36:30;;;;;;;2.28;1.75;;;;;;;11.84;100.00;100091.44;4977531;28;20026;-90
2022/07/12 02:38:56;;;;;;;2.83;1.90;;;;;;;11.78;100.00;100083.00;4973218;28;20031;-87
2022/07/12 02:41:21;;;;;;;5.68;2.10;;;;;;;11.73;100.00;100083.19;4957281;28;20549;-89
2022/07/12 02:43:47;;;;;;;2.67;1.90;;;;;;;11.75;100.00;100078.75;4956840;28;20616;-89
2022/07/12 02:46:13;;;;;;;2.58;2.38;;;;;;;11.72;100.00;100081.50;4957063;28;20113;-89
2022/07/12 02:48:40;;;;;;;3.58;2.33;;;;;;;11.67;100.00;100078.22;4956787;28;20043;-89
2022/07/12 02:51:06;;;;;;;2.85;2.00;;;;;;;11.73;100.00;100093.63;4956914;28;20067;-89
2022/07/12 02:53:33;;;;;;;3.22;2.20;;;;;;;11.61;100.00;100075.91;4956751;28;20059;-88
2022/07/12 02:55:58;;;;;;;4.10;2.28;;;;;;;11.61;100.00;100076.75;4973002;28;20505;-88
2022/07/12 02:58:23;;;;;;;2.75;2.05;;;;;;;11.63;100.00;100090.59;4956789;28;20039;-88
2022/07/12 03:00:49;;;;;;;2.40;2.20;;;;;;;11.62;100.00;100091.47;4956742;28;20035;-88
2022/07/12 03:03:15;;;;;;;2.20;1.90;;;;;;;11.65;100.00;100088.75;4956897;28;20027;-88
2022/07/12 03:05:41;;;;;;;2.42;2.22;;;;;;;11.52;100.00;100077.16;4956428;28;20057;-88
2022/07/12 03:08:08;;;;;;;2.30;2.10;;;;;;;11.57;100.00;100088.22;4972762;28;20038;-88
2022/07/12 03:10:34;;;;;;;2.50;2.00;;;;;;;11.60;100.00;100089.88;4972109;28;20042;-88
2022/07/12 03:13:00;;;;;;;4.43;1.98;;;;;;;11.59;100.00;100098.63;4972625;28;20035;-88
2022/07/12 03:15:27;;;;;;;2.17;1.98;;;;;;;11.59;100.00;100094.25;4972494;28;20414;-88
2022/07/12 03:17:53;;;;;;;2.58;2.25;;;;;;;11.51;100.00;100075.47;4972351;28;20860;-88
2022/07/12 03:20:19;;;;;;;2.70;2.20;;;;;;;11.63;100.00;100087.97;4972724;28;20034;-88
2022/07/12 03:22:46;;;;;;;2.20;2.00;;;;;;;11.64;100.00;100087.06;4972281;28;20117;-88
2022/07/12 03:25:12;;;;;;;3.30;2.00;;;;;;;11.68;100.00;100085.16;4972291;28;20046;-88
2022/07/12 03:27:38;;;;;;;2.38;1.90;;;;;;;11.76;100.00;100101.34;4972115;28;20053;-88
2022/07/12 03:30:03;;;;;;;4.63;1.88;;;;;;;11.73;100.00;100091.03;4972330;28;20125;-88
2022/07/12 03:32:28;;;;;;;3.05;2.20;;;;;;;11.80;100.00;100094.19;4972212;28;20039;-89
2022/07/12 03:34:54;;;;;;;3.63;2.05;;;;;;;11.72;100.00;100087.56;4972093;28;20142;-88
2022/07/12 03:37:19;;;;;;;3.38;2.10;;;;;;;11.81;100.00;100096.75;4972303;28;20150;-88
2022/07/12 03:39:44;;;;;;;4.22;2.10;;;;;;;11.84;100.00;100098.38;4972035;28;20081;-88
2022/07/12 03:42:13;;;;;;;2.45;2.25;;;;;;;11.86;100.00;100094.81;4933617;29;20483;-88
2022/07/12 03:44:38;;;;;;;5.28;2.20;;;;;;;11.99;100.00;100097.72;4933363;29;20051;-88
2022/07/12 03:47:04;;;;;;;3.42;2.70;;;;;;;12.02;100.00;100089.75;4933827;29;20048;-87
2022/07/12 03:49:29;;;;;;;3.42;2.40;;;;;;;12.14;100.00;100099.63;4933401;29;20404;-88
2022/07/12 03:51:55;;;;;;;2.45;2.25;;;;;;;12.20;100.00;100088.91;4917480;29;20044;-89
2022/07/12 03:54:20;;;;;;;3.35;2.30;;;;;;;12.34;100.00;100097.84;4917718;29;20443;-88
2022/07/12 03:59:30;;;;;;;2.80;2.05;;;;;;;12.62;100.00;100103.47;4895975;29;20051;-87
2022/07/12 04:01:56;;;;;;;3.88;2.40;;;;;;;12.71;100.00;100100.41;4879539;29;20068;-88
2022/07/12 04:04:21;;;;;;;3.45;2.10;;;;;;;12.87;100.00;100097.06;4879912;29;20476;-87
2022/07/12 04:06:46;;;;;;;2.63;1.98;;;;;;;12.99;100.00;100094.69;4895117;29;20041;-88
2022/07/12 04:09:12;;;;;;;2.90;2.10;;;;;;;13.19;100.00;100096.31;4857996;29;20073;-88
2022/07/12 04:11:37;;;;;;;2.75;2.20;;;;;;;13.24;100.00;100075.19;4857829;29;20548;-88
2022/07/12 04:14:03;;;;;;;2.92;2.10;;;;;;;13.50;100.00;100096.56;4906909;29;20075;-88
2022/07/12 04:16:29;;;;;;;3.20;2.17;;;;;;;13.58;100.00;100102.25;4906716;29;20460;-88
2022/07/12 04:18:55;;;;;;;2.30;2.10;;;;;;;13.68;100.00;100101.69;4917666;29;20039;-88
2022/07/12 04:21:21;;;;;;;2.67;1.90;;;;;;;13.69;100.00;100100.78;4917237;29;20040;-88
2022/07/12 04:23:46;;;;;;;3.63;2.13;;;;;;;13.76;100.00;100105.69;4932819;29;20031;-88
2022/07/12 04:26:11;;;;;;;4.05;2.70;;;;;;;13.76;100.00;100105.69;4933097;29;20042;-88
2022/07/12 04:28:37;;;;;;;3.88;2.90;;;;;;;13.85;100.00;100103.41;4933149;29;20039;-87
2022/07/12 04:31:02;;;;;;;5.15;2.80;;;;;;;13.90;100.00;100105.78;4935765;29;20038;-87
2022/07/12 04:33:28;;;;;;;5.00;3.03;;;;;;;13.98;100.00;100107.06;4936019;29;20035;-87
2022/07/12 04:35:54;;;;;;;4.47;2.80;;;;;;;14.03;100.00;100105.97;4952083;29;20050;-87
2022/07/12 04:38:19;;;;;;;3.33;2.72;;;;;;;14.08;100.00;100112.69;4951364;28;20031;-87
2022/07/12 04:40:44;;;;;;;4.55;2.67;;;;;;;14.02;100.00;100092.03;4935597;29;20043;-87
2022/07/12 04:43:10;;;;;;;2.78;2.40;;;;;;;14.11;100.00;100099.41;4935866;29;20423;-87
2022/07/12 04:45:35;;;;;;;4.32;2.10;;;;;;;14.02;100.00;100097.28;4938478;28;20109;-88
2022/07/12 04:48:00;;;;;;;4.38;2.35;;;;;;;14.13;100.00;100110.66;4992951;28;20034;-87
2022/07/12 04:50:26;;;;;;;3.13;2.40;;;;;;;14.11;100.00;100107.25;4975550;28;20031;-88
2022/07/12 04:52:51;;;;;;;2.92;2.03;;;;;;;14.13;100.00;100108.03;4975397;28;20026;-88
2022/07/12 04:55:16;;;;;;;4.40;1.80;;;;;;;14.10;100.00;100104.72;4975492;28;20773;-88
2022/07/12 04:57:42;;;;;;;6.72;2.25;;;;;;;14.10;100.00;100104.72;4970625;28;20041;-89
2022/07/12 05:00:08;;;;;;;3.20;2.15;;;;;;;14.10;100.00;100108.19;4970960;28;20483;-88
2022/07/12 05:02:33;;;;;;;3.60;2.03;;;;;;;14.09;100.00;100105.66;4970904;28;20478;-87
2022/07/12 05:04:59;;;;;;;6.97;2.30;;;;;;;14.04;100.00;100086.75;4970629;28;20027;-89
2022/07/12 05:07:24;;;;;;;2.55;2.05;;;;;;;14.21;100.00;100116.31;4970894;28;20041;-88
2022/07/12 05:09:51;;;;;;;4.80;2.47;;;;;;;14.24;100.00;100110.06;4954494;28;20046;-89
2022/07/12 05:12:17;;;;;;;6.22;2.25;;;;;;;14.27;100.00;100101.19;4970848;28;20042;-88
2022/07/12 05:14:42;;;;;;;3.70;2.00;;;;;;;14.18;100.00;100079.81;4970187;28;20031;-89
2022/07/12 05:17:07;;;;;;;5.28;2.20;;;;;;;14.38;100.00;100097.06;4970789;28;20093;-88
2022/07/12 05:19:33;;;;;;;4.90;2.20;;;;;;;14.46;100.00;100100.09;4970773;28;20046;-89
2022/07/12 05:21:58;;;;;;;3.00;1.90;;;;;;;14.49;100.00;100096.47;4970422;28;20037;-89
2022/07/12 05:24:23;;;;;;;3.63;2.13;;;;;;;14.55;100.00;100096.16;4970450;28;20105;-88
2022/07/12 05:26:49;;;;;;;5.28;2.13;;;;;;;14.66;100.00;100099.03;4971504;28;20030;-88
2022/07/12 05:29:14;;;;;;;5.93;2.05;;;;;;;14.73;100.00;100110.84;4974752;28;20039;-88
2022/07/12 05:31:39;;;;;;;3.08;1.90;;;;;;;14.75;100.00;100094.16;4974898;28;20033;-88
2022/07/12 05:34:05;;;;;;;2.58;1.90;;;;;;;14.83;100.00;100091.97;4970322;28;20046;-89
2022/07/12 05:36:30;;;;;;;4.38;2.10;;;;;;;14.92;100.00;100100.16;4970480;28;20094;-88
2022/07/12 05:38:56;;;;;;;3.85;2.10;;;;;;;15.01;100.00;100097.94;4970361;28;20050;-88
2022/07/12 05:41:21;;;;;;;2.75;2.17;;;;;;;15.11;100.00;100101.72;4970756;28;20030;-88
2022/07/12 05:43:46;;;;;;;4.32;2.05;;;;;;;15.21;100.00;100106.34;4970195;28;20481;-88
2022/07/12 05:46:12;;;;;;;4.53;2.28;;;;;;;15.27;100.00;100099.06;4970297;28;20031;-88
2022/07/12 05:48:40;;;;;;;5.03;2.55;;;;;;;15.31;100.00;100090.91;4955245;28;20093;-88
2022/07/12 05:53:50;;;;;;;2.42;1.88;;;;;;;15.62;100.00;100103.03;4974471;28;20142;-86
2022/07/12 05:56:15;;;;;;;3.67;1.92;;;;;;;15.78;100.00;100095.09;4974132;28;20442;-87
2022/07/12 05:58:41;;;;;;;4.22;2.05;;;;;;;15.94;100.00;100090.59;4974110;28;20031;-88
2022/07/12 06:01:06;;;;;;;4.32;2.00;;;;;;;16.12;100.00;100090.41;4973884;28;20554;-87
2022/07/12 06:03:32;;;;;;;3.50;1.98;;;;;;;16.41;100.00;100075.41;4973903;28;20030;-88
2022/07/12 06:05:58;;;;;;;2.85;1.70;;;;;;;17.25;100.00;100092.75;4992425;28;20046;-88
2022/07/12 06:08:23;;;;;;;3.65;2.10;;;;;;;18.27;100.00;100087.44;4977979;28;20037;-87
2022/07/12 06:10:49;;;;;;;3.38;1.88;;;;;;;19.54;96.84;100092.06;4995264;28;20057;-87
2022/07/12 06:13:14;;;;;;;3.75;1.88;;;;;;;20.55;88.72;100070.06;4995700;28;20069;-86
2022/07/12 06:15:39;;;;;;;1.83;1.52;;;;;;;21.51;84.47;100079.75;4978266;28;20073;-87
2022/07/12 06:18:05;;;;;;;5.80;1.50;;;;;;;22.19;80.67;100088.03;4972837;28;20054;-88
2022/07/12 06:20:31;;;;;;;5.18;1.60;;;;;;;23.00;76.40;100078.91;4973261;28;20078;-87
2022/07/12 06:22:56;;;;;;;1.85;1.50;;;;;;;24.54;70.35;100073.25;4973073;28;20398;-87
2022/07/12 06:25:22;;;;;;;4.47;1.80;;;;;;;25.70;64.99;100077.47;4973290;28;20043;-87
2022/07/12 06:27:48;;;;;;;3.35;1.88;;;;;;;26.15;61.84;100083.56;4973081;28;20043;-87
2022/07/12 06:30:17;;;;;;;2.83;1.30;;;;;;;26.27;60.92;100058.25;4973439;28;20477;-89
2022/07/12 06:32:44;;;;;;;3.22;1.67;;;;;;;26.97;58.68;100082.78;4973679;28;20039;-89
2022/07/12 06:35:09;;;;;;;3.03;1.60;;;;;;;28.25;54.96;100077.50;4973303;28;20392;-87
2022/07/12 06:37:35;;;;;;;2.05;1.60;;;;;;;29.20;50.45;100058.41;4973428;28;20045;-87
2022/07/12 06:40:00;;;;;;;3.40;1.67;;;;;;;30.12;44.88;100068.81;4973231;28;20035;-88
2022/07/12 06:42:25;;;;;;;2.70;1.30;;;;;;;30.98;42.08;100072.50;4971865;28;20128;-88
2022/07/12 06:44:51;;;;;;;3.28;1.42;;;;;;;31.84;38.73;100066.91;4973179;28;20049;-89
2022/07/12 06:47:16;;;;;;;2.67;1.50;;;;;;;32.52;37.73;100075.88;4957189;28;20058;-87
2022/07/12 06:49:42;;;;;;;5.60;1.30;;;;;;;33.07;35.88;100062.28;4969277;28;20094;-88
2022/07/12 06:52:07;;;;;;;2.67;1.42;;;;;;;33.57;34.18;100068.06;4958142;28;20652;-88
2022/07/12 06:54:33;;;;;;;2.47;1.40;;;;;;;33.59;33.56;100064.13;4958313;28;20030;-89
2022/07/12 06:56:58;;;;;;;2.92;1.52;;;;;;;33.87;33.39;100062.97;4957762;28;20137;-89
2022/07/12 06:59:23;;;;;;;1.88;1.15;;;;;;;33.85;32.11;100054.28;4976225;28;20034;-90
2022/07/12 07:01:50;;;;;;;2.95;1.60;;;;;;;34.01;31.93;100059.22;4994018;28;20034;-91
2022/07/12 07:04:15;;;;;;;2.30;1.70;;;;;;;33.98;31.81;100059.66;4977457;28;20058;-90
2022/07/12 07:06:40;;;;;;;3.50;1.25;;;;;;;33.68;31.76;100065.53;4977431;28;20061;-90
2022/07/12 07:09:09;;;;;;;1.75;1.27;;;;;;;33.67;32.54;100060.34;4976949;28;20458;-89
2022/07/12 07:11:36;;;;;;;2.25;1.27;;;;;;;33.47;32.15;100047.72;4953450;29;20039;-89
2022/07/12 07:14:03;;;;;;;1.90;1.30;;;;;;;33.82;31.99;100073.59;4953280;29;20131;-88
2022/07/12 07:16:28;;;;;;;3.10;2.10;;;;;;;33.99;31.37;100066.72;4933907;29;20051;-89
2022/07/12 07:18:53;;;;;;;1.80;1.38;;;;;;;34.01;30.36;100067.34;4933963;29;20587;-89
2022/07/12 07:21:19;;;;;;;5.95;1.52;;;;;;;33.73;30.54;100064.91;4934236;29;20043;-89
2022/07/12 07:23:44;;;;;;;1.35;1.20;;;;;;;33.80;31.20;100064.91;4934269;29;20395;-88
2022/07/12 07:26:09;;;;;;;1.58;1.20;;;;;;;33.95;31.56;100055.47;4933909;29;20043;-90
2022/07/12 07:30:52;;;;;;;2.20;1.30;;;;;;;34.12;31.11;100058.53;4934156;29;20036;-90
2022/07/12 07:31:20;;;;;;;4.70;1.60;;;;;;;34.05;31.55;100055.06;4933987;29;20036;-89
2022/07/12 07:33:46;;;;;;;1.98;1.40;;;;;;;33.95;30.70;100041.94;4933984;29;20103;-90
2022/07/12 07:36:11;;;;;;;1.40;1.30;;;;;;;34.11;31.06;100056.06;4933809;29;20031;-90
2022/07/12 07:38:37;;;;;;;2.85;1.75;;;;;;;34.16;31.26;100045.44;4934049;29;20407;-90
2022/07/12 07:41:02;;;;;;;9.55;1.70;;;;;;;34.00;31.10;100046.75;4933577;29;20101;-90
2022/07/12 07:43:27;;;;;;;2.17;1.42;;;;;;;33.73;31.14;100059.50;4950407;29;20069;-89
2022/07/12 07:45:53;;;;;;;1.30;1.05;;;;;;;33.45;30.92;100055.19;4952813;29;20178;-89
2022/07/12 07:48:19;;;;;;;3.15;1.30;;;;;;;33.38;32.19;100048.97;4952873;28;20039;-90
2022/07/12 07:50:44;;;;;;;1.75;1.10;;;;;;;33.01;31.43;100047.75;4971802;28;20058;-89
2022/07/12 07:53:09;;;;;;;2.33;1.42;;;;;;;32.75;32.73;100051.25;4975803;28;20038;-89
2022/07/12 07:55:35;;;;;;;2.88;1.10;;;;;;;32.63;32.30;100052.91;4975524;28;20514;-89
2022/07/12 07:58:00;;;;;;;3.42;1.38;;;;;;;32.68;32.69;100059.31;4991674;28;20482;-90
2022/07/12 08:00:26;;;;;;;2.13;0.95;;;;;;;32.53;30.70;100037.09;4991335;28;20034;-89
2022/07/12 08:02:51;;;;;;;0.88;0.82;;;;;;;32.23;29.52;100047.38;4991320;28;20030;-88
2022/07/12 08:05:17;;;;;;;2.03;0.95;;;;;;;31.43;29.84;100046.13;4991193;28;20041;-88
2022/07/12 08:07:42;;;;;;;3.30;1.10;;;;;;;30.75;30.64;100043.91;4990937;28;20026;-89
2022/07/12 08:10:08;;;;;;;2.17;0.93;;;;;;;30.16;31.52;100036.06;4974566;28;20117;-89
2022/07/12 08:12:34;;;;;;;2.08;0.90;;;;;;;29.21;32.66;100031.44;4990055;28;20100;-89
2022/07/12 08:14:59;;;;;;;1.42;1.10;;;;;;;28.44;34.30;100033.34;4990698;28;20582;-90
2022/07/12 08:17:25;;;;;;;4.05;1.15;;;;;;;27.89;35.20;100037.81;4975144;28;20057;-89
2022/07/12 08:19:50;;;;;;;1.23;1.13;;;;;;;27.38;36.58;100041.81;4992228;28;20073;-88
2022/07/12 08:22:16;;;;;;;5.97;1.20;;;;;;;27.02;37.42;100031.47;4991839;28;20033;-89
2022/07/12 08:24:41;;;;;;;1.73;0.82;;;;;;;26.69;37.78;100027.97;4992249;28;20068;-88
2022/07/12 08:27:06;;;;;;;4.38;1.10;;;;;;;26.44;36.90;100038.63;4992025;28;20120;-89
2022/07/12 08:29:32;;;;;;;2.75;1.08;;;;;;;25.93;37.92;100053.78;4975969;28;20388;-87
2022/07/12 08:31:57;;;;;;;0.90;0.80;;;;;;;25.37;38.59;100036.47;4991445;28;20030;-87
2022/07/12 08:34:22;;;;;;;0.95;0.70;;;;;;;24.83;39.85;100054.38;4993175;28;20038;-87
2022/07/12 08:36:48;;;;;;;1.20;0.88;;;;;;;24.48;41.06;100045.41;4993005;28;20034;-87
2022/07/12 08:39:13;;;;;;;0.80;0.80;;;;;;;24.42;40.30;100056.63;4975634;28;20065;-87
2022/07/12 08:41:38;;;;;;;3.03;0.85;;;;;;;24.23;40.42;100059.38;4975737;28;20039;-88
2022/07/12 08:44:04;;;;;;;1.70;1.08;;;;;;;24.20;42.08;100059.69;4975494;28;20026;-88
2022/07/12 08:46:29;;;;;;;1.95;0.90;;;;;;;24.25;42.72;100058.25;4975556;28;20018;-88
2022/07/12 08:48:54;;;;;;;1.48;0.88;;;;;;;24.07;42.82;100046.75;4975283;28;20117;-89
2022/07/12 08:51:21;;;;;;;2.47;0.85;;;;;;;23.98;42.15;100056.44;4992846;28;20030;-88
2022/07/12 08:53:49;;;;;;;2.47;0.98;;;;;;;23.87;43.22;100054.81;4975281;28;20466;-89
2022/07/12 08:56:34;;;;;;;1.13;0.70;;;;;;;23.91;44.08;100039.41;4975367;28;20045;-89
2022/07/12 08:59:16;;;;;;;1.48;0.93;;;;;;;23.92;43.76;100050.88;4975214;28;20026;-88
2022/07/12 09:01:52;;;;;;;1.17;1.00;;;;;;;23.80;43.88;100042.25;4975369;28;20078;-89
2022/07/12 09:04:23;;;;;;;1.45;0.90;;;;;;;23.71;43.23;100043.13;4975193;28;20088;-86
2022/07/12 09:06:49;;;;;;;0.93;0.90;;;;;;;23.60;44.69;100042.31;4975424;28;20030;-87
2022/07/12 09:09:28;;;;;;;1.27;0.95;;;;;;;23.59;45.73;100045.91;4975030;28;20105;-88
2022/07/12 09:11:53;;;;;;;1.15;0.93;;;;;;;23.61;45.99;100045.78;4975136;28;20033;-88
2022/07/12 09:14:20;;;;;;;1.73;1.20;;;;;;;23.55;45.40;100033.91;4974931;28;20027;-88
2022/07/12 09:17:01;;;;;;;3.05;1.15;;;;;;;23.50;44.94;100035.31;4975161;28;20498;-87
2022/07/12 09:19:27;;;;;;;1.13;1.05;;;;;;;23.47;45.68;100023.19;4975439;28;20019;-87
2022/07/12 09:21:54;;;;;;;1.67;1.00;;;;;;;23.61;46.23;100048.44;4975232;28;20496;-88
2022/07/12 09:24:24;;;;;;;1.77;1.20;;;;;;;23.60;45.63;100041.47;4974513;28;20022;-89
2022/07/12 09:26:56;;;;;;;2.47;1.30;;;;;;;23.70;46.26;100049.44;4992453;28;20027;-87
2022/07/12 09:29:21;;;;;;;0.85;0.85;;;;;;;23.69;44.85;100045.94;4974856;28;20030;-87
2022/07/12 09:37:18;;;;;;;1.30;0.82;;;;;;;23.49;44.73;100044.28;4992361;28;20042;-87
2022/07/12 09:39:44;;;;;;;0.95;0.85;;;;;;;23.46;44.57;100041.91;4975549;28;20026;-87
2022/07/12 09:42:12;;;;;;;0.73;0.73;;;;;;;23.50;44.29;100053.94;4974802;28;20038;-88
2022/07/12 09:44:41;;;;;;;1.90;0.90;;;;;;;23.59;45.92;100043.25;4974995;28;20450;-87
2022/07/12 09:47:13;;;;;;;1.35;1.00;;;;;;;23.62;44.66;100040.31;4974484;28;20062;-88
2022/07/12 09:49:40;;;;;;;1.10;1.02;;;;;;;23.57;44.93;100025.78;4989032;28;20394;-87
2022/07/12 09:52:10;;;;;;;2.67;1.08;;;;;;;23.57;44.40;100047.06;4974365;28;20034;-87
2022/07/12 09:54:39;;;;;;;3.03;1.27;;;;;;;23.19;44.76;100035.56;4990855;28;20058;-86
2022/07/12 09:57:13;;;;;;;1.05;1.00;;;;;;;23.27;46.04;100030.38;4990520;28;20030;-87
2022/07/12 09:59:39;;;;;;;1.23;1.17;;;;;;;23.28;44.82;100050.63;4974454;28;20030;-86
2022/07/12 10:02:05;;;;;;;2.00;1.20;;;;;;;23.20;46.14;100047.84;4990359;28;20421;-87
2022/07/12 10:04:32;;;;;;;1.65;1.15;;;;;;;23.08;45.83;100039.19;4990491;28;20037;-87
2022/07/12 10:06:58;;;;;;;0.75;0.70;;;;;;;23.09;46.01;100045.34;4990775;28;20392;-87
2022/07/12 10:09:25;;;;;;;1.35;0.93;;;;;;;23.15;46.37;100052.78;4974469;28;20026;-87
2022/07/12 10:11:52;;;;;;;1.13;1.02;;;;;;;23.25;46.18;100050.09;4974664;28;20026;-87
2022/07/12 10:14:19;;;;;;;1.00;1.00;;;;;;;23.20;45.69;100060.31;4974143;28;20022;-86
2022/07/12 10:16:45;;;;;;;1.10;0.85;;;;;;;23.08;45.28;100055.16;4990625;28;20051;-87
2022/07/12 10:19:25;;;;;;;1.05;0.90;;;;;;;22.95;46.22;100043.97;4990496;28;20409;-87
2022/07/12 10:21:52;;;;;;;1.10;1.00;;;;;;;23.02;45.97;100060.19;4990535;28;20038;-86
2022/07/12 10:24:33;;;;;;;1.00;1.00;;;;;;;23.00;45.98;100062.16;4973624;28;20023;-87
2022/07/12 10:27:20;;;;;;;3.78;1.10;;;;;;;22.91;47.08;100047.88;4990635;28;20371;-87
2022/07/12 10:29:47;;;;;;;1.48;1.05;;;;;;;22.95;47.14;100053.75;4974630;28;20367;-86
2022/07/12 10:32:33;;;;;;;3.60;1.48;;;;;;;22.89;46.14;100061.28;4973293;28;20026;-87
2022/07/12 10:35:01;;;;;;;2.10;1.15;;;;;;;22.82;46.25;100059.34;4971615;28;20562;-87
2022/07/12 10:37:28;;;;;;;1.50;0.93;;;;;;;22.70;47.26;100045.34;5010313;28;20034;-87
2022/07/12 10:40:12;;;;;;;3.17;1.40;;;;;;;22.85;47.56;100051.09;4993599;28;20027;-87
2022/07/12 10:42:38;;;;;;;2.88;1.27;;;;;;;22.91;47.30;100053.19;5010486;28;20053;-87
2022/07/12 10:45:15;;;;;;;1.30;1.10;;;;;;;22.97;47.76;100049.16;4977466;28;20485;-87
2022/07/12 10:47:57;;;;;;;0.93;0.93;;;;;;;23.18;46.92;100049.84;4975843;28;20109;-87
2022/07/12 10:51:02;;;;;;;0.93;0.93;;;;;;;23.29;47.44;100062.09;4975677;28;20062;-89
2022/07/12 10:53:34;;;;;;;1.55;0.98;;;;;;;23.27;46.67;100054.28;4994499;28;20083;-87
2022/07/12 10:56:06;;;;;;;2.53;1.20;;;;;;;23.26;46.48;100059.72;4994877;28;20030;-87
2022/07/12 10:58:32;;;;;;;3.25;0.90;;;;;;;23.18;46.65;100049.84;4976996;28;20041;-88
2022/07/12 11:00:59;;;;;;;2.33;1.15;;;;;;;23.17;46.38;100058.75;4977166;28;20628;-88
2022/07/12 11:03:30;;;;;;;2.35;1.30;;;;;;;22.95;47.27;100029.84;4976795;28;20030;-88
2022/07/12 11:06:03;;;;;;;4.30;1.42;;;;;;;22.97;47.88;100034.06;4979487;28;20076;-88
2022/07/12 11:08:34;;;;;;;1.20;1.10;;;;;;;22.95;46.66;100046.63;4994466;28;20074;-88
2022/07/12 11:11:00;;;;;;;5.18;1.48;;;;;;;22.85;47.81;100037.81;4993127;28;20035;-87
2022/07/12 11:13:25;;;;;;;1.00;1.00;;;;;;;22.80;47.39;100051.50;4977087;28;20034;-88
2022/07/12 11:16:00;;;;;;;1.00;1.00;;;;;;;22.71;47.26;100049.66;4993343;28;20395;-88
2022/07/12 11:18:34;;;;;;;1.35;1.00;;;;;;;22.59;47.88;100037.53;4993218;28;20054;-88
2022/07/12 11:21:02;;;;;;;1.40;1.00;;;;;;;22.64;48.84;100032.66;4977082;28;20541;-89
2022/07/12 11:23:28;;;;;;;2.38;0.95;;;;;;;22.79;48.90;100033.03;4977065;28;20157;-88
2022/07/12 11:25:55;;;;;;;1.30;1.20;;;;;;;22.89;48.46;100039.22;4976933;28;20038;-88
2022/07/12 11:28:21;;;;;;;1.10;1.00;;;;;;;23.10;48.40;100025.78;4976853;28;20026;-89
2022/07/12 11:30:53;;;;;;;1.65;1.00;;;;;;;23.31;48.51;100026.44;4976926;28;20053;-88